Terminal Aerodrome Forecast
Issued by NWS

Home | Current Version | Previous Version | Text Only | Print | Product List | Glossary On
Versions: 1 2 3 4 5 6 7 8 9 10 11 12 13 14 15 16 17 18 19
000
FTUS42 KFFC 212328
TAFPDK
TAF
KPDK 212328Z 2200/2224 00000KT P6SM SCT035 BKN050
     FM220300 00000KT P6SM SCT015 BKN030
     FM220600 00000KT 5SM BR SCT008 OVC012
     FM220800 00000KT 2SM BR BKN006 OVC012
     FM221200 32008KT P6SM SCT012
     FM221400 33008KT P6SM SCT250=

USA.gov is the U.S. government's official web portal to all federal, state and local government web resources and services.